sensor_id;sensor_type;location;lat;lon;timestamp;P1;durP1;ratioP1;P2;durP2;ratioP2
12072;SDS011;6098;49.004;8.372;2023-05-07T00:07:04;5.38;;;3.74;;
12072;SDS011;6098;49.004;8.372;2023-05-07T00:21:53;3.83;;;3.18;;
12072;SDS011;6098;49.004;8.372;2023-05-07T00:36:45;3.57;;;3.26;;
12072;SDS011;6098;49.004;8.372;2023-05-07T00:51:37;4.68;;;3.22;;
12072;SDS011;6098;49.004;8.372;2023-05-07T01:06:28;3.82;;;3.51;;
12072;SDS011;6098;49.004;8.372;2023-05-07T01:21:19;4.08;;;3.26;;
12072;SDS011;6098;49.004;8.372;2023-05-07T01:36:12;3.64;;;3.30;;
12072;SDS011;6098;49.004;8.372;2023-05-07T01:51:04;4.83;;;3.43;;
12072;SDS011;6098;49.004;8.372;2023-05-07T02:05:56;6.03;;;3.91;;
12072;SDS011;6098;49.004;8.372;2023-05-07T02:20:48;4.46;;;3.58;;
12072;SDS011;6098;49.004;8.372;2023-05-07T02:35:43;4.96;;;3.89;;
12072;SDS011;6098;49.004;8.372;2023-05-07T02:50:34;5.56;;;4.11;;
12072;SDS011;6098;49.004;8.372;2023-05-07T03:05:27;4.11;;;3.71;;
12072;SDS011;6098;49.004;8.372;2023-05-07T03:20:19;5.17;;;3.61;;
12072;SDS011;6098;49.004;8.372;2023-05-07T03:35:13;4.17;;;3.77;;
12072;SDS011;6098;49.004;8.372;2023-05-07T03:50:05;4.40;;;4.00;;
12072;SDS011;6098;49.004;8.372;2023-05-07T04:04:56;4.92;;;4.09;;
12072;SDS011;6098;49.004;8.372;2023-05-07T04:19:50;4.33;;;3.93;;
12072;SDS011;6098;49.004;8.372;2023-05-07T04:34:43;5.84;;;4.19;;
12072;SDS011;6098;49.004;8.372;2023-05-07T04:49:36;4.49;;;4.09;;
12072;SDS011;6098;49.004;8.372;2023-05-07T05:04:27;5.69;;;4.13;;
12072;SDS011;6098;49.004;8.372;2023-05-07T05:19:20;5.08;;;4.09;;
12072;SDS011;6098;49.004;8.372;2023-05-07T05:34:12;7.58;;;3.77;;
12072;SDS011;6098;49.004;8.372;2023-05-07T05:49:05;5.30;;;3.60;;
12072;SDS011;6098;49.004;8.372;2023-05-07T06:04:01;4.08;;;3.24;;
12072;SDS011;6098;49.004;8.372;2023-05-07T06:18:53;4.78;;;3.13;;
12072;SDS011;6098;49.004;8.372;2023-05-07T06:33:46;3.42;;;3.10;;
12072;SDS011;6098;49.004;8.372;2023-05-07T06:48:39;4.47;;;3.28;;
12072;SDS011;6098;49.004;8.372;2023-05-07T07:03:33;3.81;;;2.88;;
12072;SDS011;6098;49.004;8.372;2023-05-07T07:18:26;4.44;;;3.28;;
12072;SDS011;6098;49.004;8.372;2023-05-07T07:33:19;3.27;;;2.62;;
12072;SDS011;6098;49.004;8.372;2023-05-07T07:48:11;3.27;;;2.71;;
12072;SDS011;6098;49.004;8.372;2023-05-07T08:03:05;5.03;;;3.03;;
12072;SDS011;6098;49.004;8.372;2023-05-07T08:17:58;4.26;;;2.90;;
12072;SDS011;6098;49.004;8.372;2023-05-07T08:32:52;3.46;;;2.50;;
12072;SDS011;6098;49.004;8.372;2023-05-07T08:47:47;3.08;;;2.61;;
12072;SDS011;6098;49.004;8.372;2023-05-07T09:02:38;3.47;;;3.17;;
12072;SDS011;6098;49.004;8.372;2023-05-07T09:17:31;3.17;;;2.95;;
12072;SDS011;6098;49.004;8.372;2023-05-07T09:32:24;3.20;;;2.90;;
12072;SDS011;6098;49.004;8.372;2023-05-07T09:47:18;6.11;;;2.83;;
12072;SDS011;6098;49.004;8.372;2023-05-07T10:02:11;3.21;;;2.95;;
12072;SDS011;6098;49.004;8.372;2023-05-07T10:17:03;4.15;;;3.42;;
12072;SDS011;6098;49.004;8.372;2023-05-07T10:31:58;3.40;;;3.09;;
12072;SDS011;6098;49.004;8.372;2023-05-07T10:47:05;4.00;;;2.60;;
12072;SDS011;6098;49.004;8.372;2023-05-07T11:17:05;2.86;;;2.60;;
12072;SDS011;6098;49.004;8.372;2023-05-07T11:32:00;3.24;;;2.83;;
12072;SDS011;6098;49.004;8.372;2023-05-07T11:46:54;3.87;;;2.81;;
12072;SDS011;6098;49.004;8.372;2023-05-07T12:01:59;2.83;;;2.36;;
12072;SDS011;6098;49.004;8.372;2023-05-07T12:16:54;3.96;;;2.59;;
12072;SDS011;6098;49.004;8.372;2023-05-07T12:31:51;3.61;;;2.64;;
12072;SDS011;6098;49.004;8.372;2023-05-07T12:46:48;4.58;;;3.02;;
12072;SDS011;6098;49.004;8.372;2023-05-07T13:01:39;3.94;;;2.80;;
12072;SDS011;6098;49.004;8.372;2023-05-07T13:16:34;5.16;;;4.29;;
12072;SDS011;6098;49.004;8.372;2023-05-07T13:31:29;3.79;;;3.43;;
12072;SDS011;6098;49.004;8.372;2023-05-07T13:46:22;5.03;;;3.26;;
12072;SDS011;6098;49.004;8.372;2023-05-07T14:01:14;3.07;;;2.80;;
12072;SDS011;6098;49.004;8.372;2023-05-07T14:16:04;6.54;;;4.76;;
12072;SDS011;6098;49.004;8.372;2023-05-07T14:30:57;5.71;;;4.08;;
12072;SDS011;6098;49.004;8.372;2023-05-07T14:45:52;3.10;;;2.22;;
12072;SDS011;6098;49.004;8.372;2023-05-07T15:00:44;3.97;;;2.13;;
12072;SDS011;6098;49.004;8.372;2023-05-07T15:15:35;2.52;;;2.18;;
12072;SDS011;6098;49.004;8.372;2023-05-07T15:30:26;3.30;;;2.24;;
12072;SDS011;6098;49.004;8.372;2023-05-07T15:45:18;3.77;;;2.72;;
12072;SDS011;6098;49.004;8.372;2023-05-07T16:00:12;3.01;;;2.60;;
12072;SDS011;6098;49.004;8.372;2023-05-07T16:15:05;3.09;;;2.12;;
12072;SDS011;6098;49.004;8.372;2023-05-07T16:29:58;4.30;;;2.37;;
12072;SDS011;6098;49.004;8.372;2023-05-07T16:44:50;2.75;;;2.11;;
12072;SDS011;6098;49.004;8.372;2023-05-07T16:59:40;2.99;;;1.98;;
12072;SDS011;6098;49.004;8.372;2023-05-07T17:14:33;2.40;;;2.10;;
12072;SDS011;6098;49.004;8.372;2023-05-07T17:29:26;3.80;;;2.37;;
12072;SDS011;6098;49.004;8.372;2023-05-07T17:44:15;3.49;;;2.30;;
12072;SDS011;6098;49.004;8.372;2023-05-07T17:59:05;8.39;;;3.16;;
12072;SDS011;6098;49.004;8.372;2023-05-07T18:13:57;9.27;;;5.84;;
12072;SDS011;6098;49.004;8.372;2023-05-07T18:28:49;5.33;;;4.16;;
12072;SDS011;6098;49.004;8.372;2023-05-07T18:43:42;7.86;;;5.76;;
12072;SDS011;6098;49.004;8.372;2023-05-07T18:58:35;6.50;;;5.86;;
12072;SDS011;6098;49.004;8.372;2023-05-07T19:13:26;7.68;;;4.53;;
12072;SDS011;6098;49.004;8.372;2023-05-07T19:28:18;8.72;;;4.68;;
12072;SDS011;6098;49.004;8.372;2023-05-07T19:43:10;6.97;;;5.34;;
12072;SDS011;6098;49.004;8.372;2023-05-07T19:58:06;6.56;;;5.39;;
12072;SDS011;6098;49.004;8.372;2023-05-07T20:12:58;8.28;;;6.61;;
12072;SDS011;6098;49.004;8.372;2023-05-07T20:27:55;9.47;;;6.50;;
12072;SDS011;6098;49.004;8.372;2023-05-07T20:42:50;8.62;;;7.67;;
12072;SDS011;6098;49.004;8.372;2023-05-07T20:57:41;11.37;;;8.57;;
12072;SDS011;6098;49.004;8.372;2023-05-07T21:12:33;12.24;;;10.58;;
12072;SDS011;6098;49.004;8.372;2023-05-07T21:27:26;10.19;;;9.07;;
12072;SDS011;6098;49.004;8.372;2023-05-07T21:42:21;10.79;;;9.16;;
12072;SDS011;6098;49.004;8.372;2023-05-07T21:57:26;9.38;;;8.16;;
12072;SDS011;6098;49.004;8.372;2023-05-07T22:12:15;12.78;;;9.36;;
12072;SDS011;6098;49.004;8.372;2023-05-07T22:27:07;12.20;;;9.30;;
12072;SDS011;6098;49.004;8.372;2023-05-07T22:42:00;11.17;;;9.51;;
12072;SDS011;6098;49.004;8.372;2023-05-07T22:56:52;12.29;;;7.94;;
12072;SDS011;6098;49.004;8.372;2023-05-07T23:11:44;9.38;;;7.77;;
12072;SDS011;6098;49.004;8.372;2023-05-07T23:26:39;12.67;;;8.54;;
12072;SDS011;6098;49.004;8.372;2023-05-07T23:41:31;10.11;;;8.01;;
12072;SDS011;6098;49.004;8.372;2023-05-07T23:56:24;10.23;;;8.60;;
